Time;durP1;ratioP1;P1;durP2;ratioP2;P2;SDS_P1;SDS_P2;PMS_P1;PMS_P2;Temp;Humidity;BMP_temperature;BMP_pressure;BME280_temperature;BME280_humidity;BME280_pressure;Samples;Min_cycle;Max_cycle;Signal;HPM_P1;HPM_P2
2021/12/25 00:01:20;;;;;;;18.67;10.93;;;8.40;99.90;;;;;;5091056;28;20176;-59
2021/12/25 00:03:47;;;;;;;27.92;14.32;;;8.40;99.90;;;;;;5089151;28;20188;-59
2021/12/25 00:06:12;;;;;;;31.80;15.27;;;8.40;99.90;;;;;;5090932;28;20190;-60
2021/12/25 00:08:38;;;;;;;153.15;56.60;;;8.40;99.90;;;;;;5090989;28;20514;-60
2021/12/25 00:11:07;;;;;;;163.52;62.35;;;8.50;99.90;;;;;;5090339;28;20184;-61
2021/12/25 00:13:33;;;;;;;64.65;30.38;;;8.50;99.90;;;;;;5084674;28;20180;-60
2021/12/25 00:15:59;;;;;;;30.58;16.08;;;8.50;99.90;;;;;;5094542;28;20180;-59
2021/12/25 00:18:25;;;;;;;23.55;11.23;;;8.50;99.90;;;;;;5094598;28;20604;-58
2021/12/25 00:20:51;;;;;;;15.68;9.85;;;8.60;99.90;;;;;;5094441;28;20184;-59
2021/12/25 00:23:16;;;;;;;18.25;10.40;;;8.60;99.90;;;;;;5094347;28;20194;-60
2021/12/25 00:25:47;;;;;;;17.65;10.50;;;8.50;99.90;;;;;;5094752;28;20184;-60
2021/12/25 00:29:33;;;;;;;14.40;9.13;;;8.60;99.90;;;;;;5094665;28;20184;-61
2021/12/25 00:36:10;;;;;;;16.38;8.75;;;8.40;99.90;;;;;;5093391;28;20184;-59
2021/12/25 00:38:37;;;;;;;17.40;9.50;;;8.40;99.90;;;;;;5093577;28;20560;-60
2021/12/25 00:41:04;;;;;;;15.43;8.93;;;8.30;99.90;;;;;;5092498;28;20187;-61
2021/12/25 00:43:29;;;;;;;18.35;10.05;;;8.30;99.90;;;;;;5093641;28;20219;-60
2021/12/25 00:45:55;;;;;;;16.05;9.82;;;8.30;99.90;;;;;;5094032;28;20212;-61
2021/12/25 00:48:21;;;;;;;16.90;9.73;;;8.30;99.90;;;;;;5094339;28;20176;-61
2021/12/25 00:50:46;;;;;;;18.45;10.20;;;8.30;99.90;;;;;;5094180;28;20692;-58
2021/12/25 00:53:12;;;;;;;16.42;10.00;;;8.40;99.90;;;;;;5093983;28;20195;-59
2021/12/25 00:55:37;;;;;;;16.05;9.40;;;8.40;99.90;;;;;;5093322;28;20180;-60
2021/12/25 00:58:03;;;;;;;18.90;9.40;;;8.40;99.90;;;;;;5093901;28;20687;-59
2021/12/25 01:00:28;;;;;;;22.10;11.73;;;8.40;99.90;;;;;;5080260;28;20580;-59
2021/12/25 01:02:54;;;;;;;23.65;12.73;;;8.40;99.90;;;;;;5093725;28;20258;-59
2021/12/25 01:05:20;;;;;;;29.77;15.05;;;8.40;99.90;;;;;;5094087;28;20180;-59
2021/12/25 01:07:46;;;;;;;24.75;13.20;;;8.40;99.90;;;;;;5093737;28;20532;-59
2021/12/25 01:10:16;;;;;;;24.10;13.27;;;8.50;99.90;;;;;;5094067;28;20281;-59
2021/12/25 01:15:28;;;;;;;21.05;12.27;;;8.40;99.90;;;;;;5081503;28;20203;-60
2021/12/25 01:25:58;;;;;;;19.98;11.15;;;8.50;99.90;;;;;;5092208;28;20180;-60
2021/12/25 01:30:57;;;;;;;18.13;10.60;;;8.60;99.90;;;;;;5093079;28;20183;-61
2021/12/25 01:36:25;;;;;;;16.52;9.77;;;8.70;99.90;;;;;;5091830;28;20180;-61
2021/12/25 01:49:35;;;;;;;17.33;9.32;;;8.60;99.90;;;;;;5093263;28;20249;-60
2021/12/25 01:52:02;;;;;;;16.38;9.52;;;8.60;99.90;;;;;;5098031;28;20680;-61
2021/12/25 01:54:27;;;;;;;20.60;10.98;;;8.60;99.90;;;;;;5093057;28;20706;-61
2021/12/25 01:56:53;;;;;;;17.55;10.45;;;8.60;99.90;;;;;;5092879;28;20220;-60
2021/12/25 01:59:19;;;;;;;18.25;10.35;;;8.50;99.90;;;;;;5091988;28;20192;-61
2021/12/25 02:01:44;;;;;;;17.20;10.10;;;8.50;99.90;;;;;;5091850;28;20192;-60
2021/12/25 02:04:11;;;;;;;29.30;14.50;;;8.50;99.90;;;;;;5092978;28;20178;-60
2021/12/25 02:06:37;;;;;;;49.17;24.60;;;8.60;99.90;;;;;;5092313;28;20639;-60
2021/12/25 02:09:04;;;;;;;44.38;21.20;;;8.60;99.90;;;;;;5092110;28;20183;-60
2021/12/25 02:11:31;;;;;;;35.63;18.10;;;8.60;99.90;;;;;;5092063;28;20875;-59
2021/12/25 02:13:58;;;;;;;33.97;17.67;;;8.60;99.90;;;;;;5092690;28;20264;-59
2021/12/25 02:16:28;;;;;;;28.00;15.57;;;8.60;99.90;;;;;;5091790;28;20274;-59
2021/12/25 02:19:21;;;;;;;22.13;13.02;;;8.60;99.90;;;;;;5092112;28;20283;-59
2021/12/25 02:21:42;;;;;;;20.25;11.43;;;8.50;99.90;;;;;;5091847;28;20183;-60
2021/12/25 02:24:11;;;;;;;20.23;11.57;;;8.50;99.90;;;;;;5091757;28;20403;-60
2021/12/25 02:26:40;;;;;;;17.92;10.10;;;8.50;99.90;;;;;;5092341;28;20661;-60
2021/12/25 02:29:06;;;;;;;18.50;9.57;;;8.50;99.90;;;;;;5092324;28;20176;-59
2021/12/25 02:31:32;;;;;;;13.68;9.27;;;8.40;99.90;;;;;;5091611;28;20278;-60
2021/12/25 02:33:58;;;;;;;16.73;8.93;;;8.40;99.90;;;;;;5091844;28;20215;-59
2021/12/25 02:36:24;;;;;;;14.70;8.88;;;8.40;99.90;;;;;;5091156;28;20643;-60
2021/12/25 02:38:50;;;;;;;14.10;8.85;;;8.40;99.90;;;;;;5091565;28;20204;-60
2021/12/25 02:41:17;;;;;;;14.77;9.32;;;8.40;99.90;;;;;;5091662;28;20180;-60
2021/12/25 02:43:44;;;;;;;13.88;8.95;;;8.40;99.90;;;;;;5091971;28;20218;-60
2021/12/25 02:46:11;;;;;;;14.13;8.60;;;8.30;99.90;;;;;;5091151;28;20176;-61
2021/12/25 02:48:37;;;;;;;13.45;8.65;;;8.40;99.90;;;;;;5091491;28;20180;-60
2021/12/25 02:51:05;;;;;;;13.60;8.43;;;8.40;99.90;;;;;;5091898;28;20184;-60
2021/12/25 02:53:31;;;;;;;16.50;8.48;;;8.40;99.90;;;;;;5091069;28;20684;-60
2021/12/25 02:55:57;;;;;;;13.40;7.97;;;8.40;99.90;;;;;;5090990;28;20203;-60
2021/12/25 02:58:24;;;;;;;13.27;8.30;;;8.30;99.90;;;;;;5091735;28;20252;-60
2021/12/25 03:00:53;;;;;;;14.35;8.77;;;8.40;99.90;;;;;;5090536;28;20188;-61
2021/12/25 03:03:19;;;;;;;10.85;7.18;;;8.40;99.90;;;;;;5091152;28;20272;-61
2021/12/25 03:05:45;;;;;;;13.07;7.35;;;8.40;99.90;;;;;;5090969;28;20578;-61
2021/12/25 03:08:12;;;;;;;13.13;7.72;;;8.40;99.90;;;;;;5090605;28;20218;-61
2021/12/25 03:10:39;;;;;;;13.68;7.80;;;8.40;99.90;;;;;;5091431;28;20221;-61
2021/12/25 03:15:46;;;;;;;13.88;8.10;;;8.40;99.90;;;;;;5090595;28;20631;-59
2021/12/25 03:18:17;;;;;;;12.38;7.47;;;8.40;99.90;;;;;;5091649;28;20544;-61
2021/12/25 03:20:46;;;;;;;14.30;7.88;;;8.40;99.90;;;;;;5090341;28;20188;-61
2021/12/25 03:23:19;;;;;;;14.07;8.05;;;8.40;99.90;;;;;;5090960;28;20575;-61
2021/12/25 03:25:46;;;;;;;13.75;8.10;;;8.40;99.90;;;;;;5091153;28;20184;-61
2021/12/25 03:28:13;;;;;;;14.55;7.55;;;8.40;99.90;;;;;;5091397;28;20203;-61
2021/12/25 03:30:39;;;;;;;14.43;8.13;;;8.40;99.90;;;;;;5090770;28;20528;-61
2021/12/25 03:33:11;;;;;;;12.95;7.78;;;8.40;99.90;;;;;;5091029;28;20184;-61
2021/12/25 03:35:37;;;;;;;14.15;8.20;;;8.40;99.90;;;;;;5091207;28;20187;-60
2021/12/25 03:38:05;;;;;;;15.43;8.13;;;8.40;99.90;;;;;;5091306;28;20187;-60
2021/12/25 03:40:31;;;;;;;12.65;7.97;;;8.40;99.90;;;;;;5090869;28;20277;-60
2021/12/25 03:42:57;;;;;;;13.15;7.78;;;8.40;99.90;;;;;;5090051;28;20261;-59
2021/12/25 03:45:23;;;;;;;16.13;8.23;;;8.40;99.90;;;;;;5090808;28;20269;-59
2021/12/25 03:47:51;;;;;;;14.13;7.75;;;8.40;99.90;;;;;;5092513;28;20637;-59
2021/12/25 03:53:23;;;;;;;13.30;8.02;;;8.40;99.90;;;;;;5095076;28;20183;-59
2021/12/25 03:58:34;;;;;;;13.10;8.35;;;8.40;99.90;;;;;;5094980;28;20273;-59
2021/12/25 04:01:13;;;;;;;13.20;8.05;;;8.40;99.90;;;;;;5095274;28;20212;-59
2021/12/25 04:03:59;;;;;;;12.45;7.85;;;8.40;99.90;;;;;;5095247;28;20186;-59
2021/12/25 04:06:25;;;;;;;13.90;7.75;;;8.40;99.90;;;;;;5094449;28;20230;-59
2021/12/25 04:08:52;;;;;;;14.18;8.13;;;8.40;99.90;;;;;;5094636;28;20712;-58
2021/12/25 04:11:27;;;;;;;16.52;8.45;;;8.40;99.90;;;;;;5095269;28;20180;-58
2021/12/25 04:13:53;;;;;;;14.55;8.65;;;8.40;99.90;;;;;;5094930;28;20592;-59
2021/12/25 04:16:19;;;;;;;16.38;8.82;;;8.40;99.90;;;;;;5094221;28;20214;-59
2021/12/25 04:18:44;;;;;;;15.82;8.68;;;8.40;99.90;;;;;;5094600;28;20565;-59
2021/12/25 04:21:10;;;;;;;14.35;7.82;;;8.40;99.90;;;;;;5094511;28;20177;-59
2021/12/25 04:23:39;;;;;;;12.18;7.97;;;8.40;99.90;;;;;;5094716;28;20188;-58
2021/12/25 04:26:05;;;;;;;12.38;8.20;;;8.40;99.90;;;;;;5094888;28;20184;-60
2021/12/25 04:28:38;;;;;;;12.43;7.78;;;8.40;99.90;;;;;;5094623;28;20456;-60
2021/12/25 05:06:00;;;;;;;13.13;7.40;;;8.50;99.90;;;;;;5093560;28;20279;-59
2021/12/25 05:08:26;;;;;;;15.82;8.60;;;8.50;99.90;;;;;;5093215;28;20172;-59
2021/12/25 05:10:51;;;;;;;16.35;8.63;;;8.50;99.90;;;;;;5093434;28;20183;-59
2021/12/25 05:13:17;;;;;;;12.57;8.38;;;8.50;99.90;;;;;;5093478;28;20661;-59
2021/12/25 05:15:44;;;;;;;14.18;8.68;;;8.50;99.90;;;;;;5094257;28;20187;-59
2021/12/25 05:18:10;;;;;;;18.30;9.50;;;8.50;99.90;;;;;;5093576;28;20190;-59
2021/12/25 05:20:35;;;;;;;19.02;9.48;;;8.50;99.90;;;;;;5093009;28;20227;-59
2021/12/25 05:23:01;;;;;;;17.13;9.85;;;8.50;99.90;;;;;;5093194;28;20207;-60
2021/12/25 05:25:26;;;;;;;17.58;10.15;;;8.50;99.90;;;;;;5093323;28;20403;-60
2021/12/25 05:27:52;;;;;;;14.55;9.13;;;8.50;99.90;;;;;;5092913;28;20184;-60
2021/12/25 05:30:18;;;;;;;14.68;8.90;;;8.50;99.90;;;;;;5093152;28;20575;-60
2021/12/25 05:32:45;;;;;;;14.88;7.82;;;8.50;99.90;;;;;;5093097;28;20241;-60
2021/12/25 05:35:11;;;;;;;12.45;7.40;;;8.50;99.90;;;;;;5092950;28;20179;-60
2021/12/25 05:37:36;;;;;;;12.98;7.95;;;8.50;99.90;;;;;;5092672;28;20188;-59
2021/12/25 05:40:04;;;;;;;12.40;8.35;;;8.50;99.90;;;;;;5093174;28;20211;-60
2021/12/25 05:42:30;;;;;;;14.05;8.77;;;8.40;99.90;;;;;;5093436;28;20180;-59
2021/12/25 05:44:56;;;;;;;13.38;8.32;;;8.40;99.90;;;;;;5092791;28;20585;-60
2021/12/25 05:47:22;;;;;;;12.27;7.90;;;8.40;99.90;;;;;;5092876;28;20181;-60
2021/12/25 05:49:47;;;;;;;12.35;7.95;;;8.40;99.90;;;;;;5092425;28;20187;-60
2021/12/25 05:52:13;;;;;;;13.10;8.50;;;8.40;99.90;;;;;;5092708;28;20180;-59
2021/12/25 05:54:39;;;;;;;12.77;8.02;;;8.40;99.90;;;;;;5092671;28;20184;-60
2021/12/25 05:57:05;;;;;;;12.88;7.95;;;8.40;99.90;;;;;;5092828;28;20216;-60
2021/12/25 05:59:30;;;;;;;12.57;8.15;;;8.40;99.90;;;;;;5093067;28;20677;-60
2021/12/25 06:01:56;;;;;;;13.48;8.07;;;8.40;99.90;;;;;;5093282;28;20175;-59
2021/12/25 06:04:21;;;;;;;13.40;8.63;;;8.40;99.90;;;;;;5091742;28;20195;-60
2021/12/25 06:06:47;;;;;;;13.20;8.63;;;8.40;99.90;;;;;;5093055;28;20255;-60
2021/12/25 06:09:13;;;;;;;15.02;8.55;;;8.40;99.90;;;;;;5092655;28;20187;-60
2021/12/25 06:11:39;;;;;;;13.23;8.55;;;8.40;99.90;;;;;;5091313;28;20191;-60
2021/12/25 06:14:10;;;;;;;13.38;7.47;;;8.40;99.90;;;;;;5091781;28;20183;-60
2021/12/25 06:16:37;;;;;;;17.60;8.88;;;8.40;99.90;;;;;;5092461;28;20631;-60
2021/12/25 06:19:04;;;;;;;13.60;8.38;;;8.40;99.90;;;;;;5092167;28;20208;-60
2021/12/25 06:21:30;;;;;;;14.75;8.45;;;8.30;99.90;;;;;;5091934;28;20259;-60
2021/12/25 06:23:56;;;;;;;13.38;8.15;;;8.30;99.90;;;;;;5092490;28;20259;-61
2021/12/25 06:26:22;;;;;;;13.93;8.77;;;8.30;99.90;;;;;;5092363;28;20600;-60
2021/12/25 06:28:47;;;;;;;20.10;10.00;;;8.30;99.90;;;;;;5092377;28;20188;-60
2021/12/25 06:31:13;;;;;;;27.83;14.60;;;8.30;99.90;;;;;;5092019;28;20184;-60
2021/12/25 06:33:38;;;;;;;29.52;16.30;;;8.30;99.90;;;;;;5091943;28;20190;-60
2021/12/25 06:36:04;;;;;;;25.50;14.63;;;8.30;99.90;;;;;;5092116;28;20179;-60
2021/12/25 06:38:30;;;;;;;29.13;16.33;;;8.30;99.90;;;;;;5091858;28;20176;-60
2021/12/25 06:40:56;;;;;;;30.77;16.63;;;8.30;99.90;;;;;;5092201;28;20191;-60
2021/12/25 06:43:21;;;;;;;34.85;17.98;;;8.30;99.90;;;;;;5092114;28;20183;-60
2021/12/25 06:45:47;;;;;;;25.73;14.15;;;8.30;99.90;;;;;;5091725;28;20267;-60
2021/12/25 06:48:12;;;;;;;30.88;16.80;;;8.20;99.90;;;;;;5091691;28;20176;-60
2021/12/25 06:50:38;;;;;;;24.15;12.80;;;8.20;99.90;;;;;;5091998;28;20175;-60
2021/12/25 06:53:03;;;;;;;14.27;8.68;;;8.20;99.90;;;;;;5091977;28;20191;-60
2021/12/25 06:55:29;;;;;;;18.08;9.32;;;8.10;99.90;;;;;;5091920;28;20172;-60
2021/12/25 06:57:57;;;;;;;16.58;9.18;;;8.10;99.90;;;;;;5091963;28;20222;-60
2021/12/25 07:00:24;;;;;;;15.45;8.88;;;8.20;99.90;;;;;;5091777;28;20204;-60
2021/12/25 07:02:50;;;;;;;14.35;8.40;;;8.20;99.90;;;;;;5091641;28;20551;-60
2021/12/25 07:05:15;;;;;;;16.25;8.88;;;8.20;99.90;;;;;;5092103;28;20180;-60
2021/12/25 07:07:43;;;;;;;17.60;9.68;;;8.20;99.90;;;;;;5091911;28;20176;-60
2021/12/25 07:10:08;;;;;;;17.80;9.38;;;8.20;99.90;;;;;;5091706;28;20596;-60
2021/12/25 07:12:37;;;;;;;17.38;9.68;;;8.20;99.90;;;;;;5092373;28;20187;-60
2021/12/25 07:15:05;;;;;;;17.73;10.18;;;8.20;99.90;;;;;;5091433;28;20533;-60
2021/12/25 07:17:30;;;;;;;18.25;9.95;;;8.20;99.90;;;;;;5091944;28;20186;-60
2021/12/25 07:19:56;;;;;;;19.10;9.80;;;8.40;99.90;;;;;;5091573;28;20307;-60
2021/12/25 07:22:22;;;;;;;19.75;10.18;;;8.50;99.90;;;;;;5091283;28;20267;-58
2021/12/25 07:24:47;;;;;;;18.02;10.00;;;8.50;99.90;;;;;;5092003;28;20184;-58
2021/12/25 07:27:13;;;;;;;18.52;9.88;;;8.40;99.90;;;;;;5091641;28;20180;-61
2021/12/25 07:29:38;;;;;;;23.15;10.82;;;8.40;99.90;;;;;;5091849;28;20176;-58
2021/12/25 07:32:04;;;;;;;18.85;10.50;;;8.40;99.90;;;;;;5091738;28;20635;-58
2021/12/25 07:34:30;;;;;;;17.85;10.10;;;8.40;99.90;;;;;;5091351;28;20654;-60
2021/12/25 07:36:56;;;;;;;20.23;10.85;;;8.40;99.90;;;;;;5073236;28;20181;-58
2021/12/25 07:39:21;;;;;;;23.23;11.73;;;8.40;99.90;;;;;;5088019;28;20214;-58
2021/12/25 07:41:47;;;;;;;20.48;10.77;;;8.40;99.90;;;;;;5090131;28;20180;-58
2021/12/25 07:44:13;;;;;;;96.93;46.03;;;8.40;99.90;;;;;;5091615;28;20206;-57
2021/12/25 07:46:38;;;;;;;35.05;18.15;;;8.50;99.90;;;;;;5080254;28;20280;-58
2021/12/25 07:49:05;;;;;;;27.08;14.27;;;8.40;99.90;;;;;;5089844;28;20265;-59
2021/12/25 07:51:30;;;;;;;24.25;12.43;;;8.50;99.90;;;;;;5089219;28;20516;-57
2021/12/25 07:53:56;;;;;;;20.88;11.52;;;8.50;99.90;;;;;;5087951;28;20180;-58
2021/12/25 07:56:26;;;;;;;25.83;12.70;;;8.40;99.90;;;;;;5090560;28;20208;-58
2021/12/25 07:58:52;;;;;;;22.58;11.50;;;8.50;99.90;;;;;;5089195;28;20290;-58
2021/12/25 08:01:19;;;;;;;23.33;11.88;;;8.50;99.90;;;;;;5090844;28;20176;-58
2021/12/25 08:03:44;;;;;;;23.38;11.48;;;8.50;99.90;;;;;;5090606;28;20180;-58
2021/12/25 08:06:10;;;;;;;23.13;12.02;;;8.50;99.90;;;;;;5091466;28;20183;-58
2021/12/25 08:08:35;;;;;;;20.95;11.68;;;8.50;99.90;;;;;;5079253;28;20205;-58
2021/12/25 08:11:01;;;;;;;20.48;11.73;;;8.50;99.90;;;;;;5091100;28;20181;-58
2021/12/25 08:13:27;;;;;;;22.38;12.13;;;8.50;99.90;;;;;;5091075;28;20179;-58
2021/12/25 08:15:52;;;;;;;24.58;12.00;;;8.50;99.90;;;;;;5091187;28;20176;-58
2021/12/25 08:18:18;;;;;;;26.58;12.73;;;8.50;99.90;;;;;;5091372;28;20529;-58
2021/12/25 08:20:43;;;;;;;23.17;12.50;;;8.50;99.90;;;;;;5091183;28;20212;-58
2021/12/25 08:23:09;;;;;;;22.08;11.93;;;8.50;99.90;;;;;;5090579;28;20168;-59
2021/12/25 08:25:35;;;;;;;29.23;13.07;;;8.50;99.90;;;;;;5091449;28;20636;-58
2021/12/25 08:28:01;;;;;;;24.55;12.40;;;8.50;99.90;;;;;;5091377;28;20179;-58
2021/12/25 08:30:27;;;;;;;30.63;13.52;;;8.50;99.90;;;;;;5091465;28;20183;-58
2021/12/25 08:32:57;;;;;;;25.00;12.95;;;8.50;99.90;;;;;;5091163;28;20237;-59
2021/12/25 08:35:24;;;;;;;26.33;12.73;;;8.50;99.90;;;;;;5093466;28;20184;-58
2021/12/25 08:37:49;;;;;;;22.17;11.20;;;8.50;99.90;;;;;;5094918;28;20172;-58
2021/12/25 08:40:16;;;;;;;21.83;11.65;;;8.50;99.90;;;;;;5094650;28;20703;-59
2021/12/25 08:42:47;;;;;;;23.92;12.02;;;8.50;99.90;;;;;;5094958;28;20172;-58
2021/12/25 08:46:00;;;;;;;20.60;11.88;;;8.50;99.90;;;;;;5094653;28;20580;-59
2021/12/25 08:48:10;;;;;;;24.27;12.60;;;8.50;99.90;;;;;;5092716;28;20302;-58
2021/12/25 08:50:36;;;;;;;26.48;11.95;;;8.60;99.90;;;;;;5094472;28;20176;-58
2021/12/25 08:53:02;;;;;;;22.65;11.65;;;8.60;99.90;;;;;;5094447;28;20568;-59
2021/12/25 08:55:28;;;;;;;27.55;12.38;;;8.60;99.90;;;;;;5094775;28;20229;-59
2021/12/25 08:57:54;;;;;;;24.88;12.73;;;8.60;99.90;;;;;;5094538;28;20702;-60
2021/12/25 09:00:19;;;;;;;22.63;12.18;;;8.60;99.90;;;;;;5094044;28;20280;-60
2021/12/25 09:02:46;;;;;;;21.02;12.05;;;8.60;99.90;;;;;;5093796;28;20176;-59
2021/12/25 09:05:11;;;;;;;28.40;11.60;;;8.60;99.90;;;;;;5094630;28;20180;-60
2021/12/25 09:07:37;;;;;;;23.98;12.30;;;8.60;99.90;;;;;;5094097;28;20198;-60
2021/12/25 09:10:04;;;;;;;26.92;11.80;;;8.60;99.90;;;;;;5094296;28;20192;-60
2021/12/25 09:12:32;;;;;;;24.90;12.70;;;8.60;99.90;;;;;;5092451;28;20184;-59
2021/12/25 09:14:57;;;;;;;25.10;13.32;;;8.60;99.90;;;;;;5093399;28;21300;-60
2021/12/25 09:17:23;;;;;;;22.80;12.70;;;8.60;99.90;;;;;;5093850;28;20203;-60
2021/12/25 09:19:49;;;;;;;22.45;12.20;;;8.70;99.90;;;;;;5094043;28;20259;-60
2021/12/25 09:22:14;;;;;;;24.45;12.27;;;8.70;99.90;;;;;;5093967;28;20176;-59
2021/12/25 09:24:40;;;;;;;24.75;11.95;;;8.80;99.90;;;;;;5092608;28;20184;-60
2021/12/25 09:27:07;;;;;;;23.17;12.00;;;8.80;99.90;;;;;;5092677;28;20176;-60
2021/12/25 09:29:33;;;;;;;22.98;11.50;;;8.80;99.90;;;;;;5093947;28;20204;-60
2021/12/25 09:31:59;;;;;;;19.35;10.60;;;8.80;99.90;;;;;;5094075;28;20176;-60
2021/12/25 09:34:25;;;;;;;16.23;10.32;;;8.90;99.90;;;;;;5093876;28;20703;-59
2021/12/25 09:36:50;;;;;;;25.50;12.45;;;8.80;99.90;;;;;;5093082;28;20172;-59
2021/12/25 09:39:16;;;;;;;21.85;11.32;;;8.80;99.90;;;;;;5093114;28;20250;-60
2021/12/25 09:41:42;;;;;;;18.95;10.95;;;8.80;99.90;;;;;;5093285;28;20262;-59
2021/12/25 09:44:08;;;;;;;24.58;12.20;;;8.80;99.90;;;;;;5091801;28;20168;-59
2021/12/25 09:46:34;;;;;;;20.13;11.43;;;8.90;99.90;;;;;;5096847;28;20187;-60
2021/12/25 09:48:59;;;;;;;21.23;11.50;;;8.90;99.90;;;;;;5096407;28;20216;-60
2021/12/25 09:51:25;;;;;;;25.08;10.43;;;8.90;99.90;;;;;;5095144;28;20172;-60
2021/12/25 09:54:10;;;;;;;21.80;10.38;;;9.00;99.90;;;;;;5094828;28;20187;-60
2021/12/25 09:56:37;;;;;;;133.52;65.68;;;9.00;99.90;;;;;;5091932;28;20227;-59
2021/12/25 09:59:04;;;;;;;18.17;10.20;;;9.50;99.90;;;;;;5093024;28;20211;-60
2021/12/25 10:01:47;;;;;;;17.33;9.18;;;9.70;99.90;;;;;;5093286;28;20176;-60
2021/12/25 10:04:33;;;;;;;12.27;7.68;;;9.60;99.90;;;;;;5082783;28;20191;-60
2021/12/25 10:07:24;;;;;;;11.20;6.85;;;9.50;99.90;;;;;;5087437;28;20274;-60
2021/12/25 10:10:03;;;;;;;13.93;7.85;;;9.40;99.90;;;;;;5092540;28;20186;-59
2021/12/25 10:12:37;;;;;;;11.93;7.10;;;9.40;99.90;;;;;;5092639;28;20271;-60
2021/12/25 10:15:08;;;;;;;10.75;6.90;;;9.30;99.90;;;;;;5092431;28;20180;-60
2021/12/25 10:17:33;;;;;;;11.98;6.50;;;9.30;99.90;;;;;;5092452;28;20199;-60
2021/12/25 10:20:08;;;;;;;13.88;7.28;;;9.50;99.90;;;;;;5092039;28;20678;-60
2021/12/25 10:22:35;;;;;;;11.93;7.00;;;9.50;99.90;;;;;;5092528;28;20190;-60
2021/12/25 10:25:15;;;;;;;12.25;7.18;;;9.50;99.90;;;;;;5092232;28;20180;-60
2021/12/25 10:28:01;;;;;;;10.35;6.38;;;9.40;99.90;;;;;;5092476;28;20184;-60
2021/12/25 10:30:26;;;;;;;25.63;13.80;;;9.30;99.90;;;;;;5091930;28;20183;-60
2021/12/25 10:32:52;;;;;;;12.63;6.80;;;9.30;99.90;;;;;;5091785;28;20268;-60
2021/12/25 10:35:25;;;;;;;15.38;6.05;;;9.30;99.90;;;;;;5091804;28;20276;-60
2021/12/25 10:37:52;;;;;;;37.25;19.85;;;9.30;99.90;;;;;;5092364;28;20214;-60
2021/12/25 10:40:32;;;;;;;11.80;6.90;;;9.30;99.90;;;;;;5091862;28;20207;-60
2021/12/25 10:43:00;;;;;;;10.43;6.13;;;9.30;99.90;;;;;;5092242;28;20241;-60
2021/12/25 10:45:28;;;;;;;10.70;6.57;;;9.30;99.90;;;;;;5092648;28;20271;-60
2021/12/25 10:48:09;;;;;;;11.38;7.43;;;9.30;99.90;;;;;;5093504;28;20180;-61
2021/12/25 10:50:38;;;;;;;10.18;7.30;;;9.30;99.90;;;;;;5091259;28;20190;-61
2021/12/25 10:53:21;;;;;;;10.68;6.60;;;9.30;99.90;;;;;;5092345;28;20623;-61
2021/12/25 10:55:47;;;;;;;14.43;7.10;;;9.20;99.90;;;;;;5083205;28;20188;-61
2021/12/25 10:58:21;;;;;;;10.13;6.45;;;9.20;99.90;;;;;;5085711;28;20226;-62
2021/12/25 11:00:54;;;;;;;12.38;7.30;;;9.20;99.90;;;;;;5089478;28;20296;-59
2021/12/25 11:03:30;;;;;;;8.95;6.07;;;9.20;99.90;;;;;;5088419;28;20259;-59
2021/12/25 11:06:13;;;;;;;12.55;6.45;;;9.20;99.90;;;;;;5092144;28;20532;-59
2021/12/25 11:08:40;;;;;;;11.40;6.65;;;9.20;99.90;;;;;;5092331;28;20259;-59
2021/12/25 11:11:09;;;;;;;10.98;6.30;;;9.20;99.90;;;;;;5092198;28;20176;-60
2021/12/25 11:13:40;;;;;;;13.48;7.00;;;9.30;99.90;;;;;;5091713;28;20228;-59
2021/12/25 11:16:12;;;;;;;10.35;6.03;;;9.30;99.90;;;;;;5091691;28;20262;-59
2021/12/25 11:19:03;;;;;;;14.50;7.35;;;9.30;99.90;;;;;;5091722;28;20255;-59
2021/12/25 11:21:31;;;;;;;9.57;6.55;;;9.30;99.90;;;;;;5090503;28;20195;-59
2021/12/25 11:24:07;;;;;;;14.80;10.02;;;9.40;99.90;;;;;;5092110;28;20204;-59
2021/12/25 11:26:36;;;;;;;12.63;8.10;;;9.40;99.90;;;;;;5091630;28;20203;-60
2021/12/25 11:29:04;;;;;;;14.82;8.65;;;9.50;99.90;;;;;;5092145;28;20236;-60
2021/12/25 11:31:31;;;;;;;32.13;16.75;;;9.50;99.90;;;;;;5091558;28;20200;-60
2021/12/25 11:33:57;;;;;;;37.40;20.35;;;9.50;99.90;;;;;;5091677;28;20224;-59
2021/12/25 11:36:23;;;;;;;19.98;11.05;;;9.50;99.90;;;;;;5091260;28;20211;-60
2021/12/25 11:38:50;;;;;;;17.52;10.85;;;9.60;99.90;;;;;;5091613;28;20259;-59
2021/12/25 11:41:16;;;;;;;10.35;7.15;;;9.60;99.90;;;;;;5091767;28;20195;-59
2021/12/25 11:43:46;;;;;;;12.88;7.32;;;9.60;99.90;;;;;;5091457;28;20572;-60
2021/12/25 11:46:14;;;;;;;25.52;15.45;;;9.60;99.90;;;;;;5108066;28;20187;-61
2021/12/25 11:48:41;;;;;;;14.00;7.97;;;9.60;99.90;;;;;;5098621;28;20199;-61
2021/12/25 11:51:22;;;;;;;11.93;6.90;;;9.60;99.90;;;;;;5097259;28;20176;-62
2021/12/25 11:54:12;;;;;;;11.80;7.00;;;9.70;99.90;;;;;;5090222;28;20164;-59
2021/12/25 11:57:04;;;;;;;13.60;6.80;;;9.80;99.90;;;;;;5091033;28;20302;-60
2021/12/25 11:59:42;;;;;;;21.45;11.50;;;9.90;99.90;;;;;;5088274;28;20211;-60
2021/12/25 12:02:08;;;;;;;9.45;6.57;;;9.90;99.90;;;;;;5073941;28;20218;-62
2021/12/25 12:04:35;;;;;;;11.38;6.70;;;10.00;99.90;;;;;;5091472;28;20183;-61
2021/12/25 12:07:06;;;;;;;10.57;6.45;;;10.00;99.90;;;;;;5091850;28;20257;-61
2021/12/25 12:09:54;;;;;;;13.05;6.82;;;10.10;99.90;;;;;;5093830;28;20205;-61
2021/12/25 12:12:24;;;;;;;8.98;5.90;;;10.00;99.90;;;;;;5095018;28;20211;-61
2021/12/25 12:15:16;;;;;;;13.40;6.88;;;10.00;99.90;;;;;;5095300;28;20184;-59
2021/12/25 12:17:43;;;;;;;15.52;8.27;;;9.90;99.90;;;;;;5095742;28;20184;-59
2021/12/25 12:20:15;;;;;;;10.27;7.18;;;9.90;99.90;;;;;;5094378;28;20223;-59
2021/12/25 12:22:53;;;;;;;9.60;5.93;;;9.90;99.90;;;;;;5094894;28;20184;-60
2021/12/25 12:25:49;;;;;;;10.82;6.28;;;9.90;99.90;;;;;;5094934;28;20188;-61
2021/12/25 12:28:13;;;;;;;9.95;6.18;;;9.90;99.90;;;;;;5094794;28;20175;-61
2021/12/25 12:30:46;;;;;;;9.02;6.22;;;9.80;99.90;;;;;;5095261;28;20181;-60
2021/12/25 12:33:15;;;;;;;11.45;6.32;;;9.90;99.90;;;;;;5093717;28;20653;-60
2021/12/25 12:35:42;;;;;;;10.00;6.47;;;9.80;99.90;;;;;;5088076;28;20245;-61
2021/12/25 12:38:42;;;;;;;10.32;6.45;;;9.90;99.90;;;;;;5094882;28;20187;-61
2021/12/25 12:41:19;;;;;;;12.18;7.47;;;10.00;99.90;;;;;;5094760;28;20651;-61
2021/12/25 12:44:05;;;;;;;12.48;7.68;;;10.10;99.90;;;;;;5094850;28;20191;-59
2021/12/25 12:46:48;;;;;;;9.48;6.22;;;10.10;99.90;;;;;;5094612;28;20600;-57
2021/12/25 12:49:23;;;;;;;9.02;5.93;;;10.10;99.90;;;;;;5093821;28;20664;-60
2021/12/25 12:52:22;;;;;;;15.38;8.13;;;10.10;99.90;;;;;;5094706;28;20634;-59
2021/12/25 12:54:49;;;;;;;10.10;6.97;;;10.00;99.90;;;;;;5094808;28;20230;-60
2021/12/25 12:57:30;;;;;;;12.90;6.95;;;10.00;99.90;;;;;;5094327;28;20227;-59
2021/12/25 13:00:00;;;;;;;10.32;6.72;;;10.00;99.90;;;;;;5094631;28;20303;-59
2021/12/25 13:02:29;;;;;;;10.70;6.38;;;9.90;99.90;;;;;;5094660;28;20529;-61
2021/12/25 13:04:58;;;;;;;12.88;7.03;;;9.90;99.90;;;;;;5092316;28;20270;-59
2021/12/25 13:07:26;;;;;;;18.45;10.02;;;10.10;99.90;;;;;;5093773;28;20249;-60
2021/12/25 13:09:59;;;;;;;6.72;4.25;;;10.30;99.90;;;;;;5094105;28;20177;-59
2021/12/25 13:15:13;;;;;;;5.95;3.78;;;9.70;99.90;;;;;;5094203;28;20172;-59
2021/12/25 13:17:47;;;;;;;3.35;2.92;;;9.40;99.90;;;;;;5094170;28;20650;-59
2021/12/25 13:20:12;;;;;;;4.07;3.10;;;8.90;99.90;;;;;;5092878;28;20751;-60
2021/12/25 13:22:38;;;;;;;4.15;3.10;;;8.60;99.90;;;;;;5093546;28;20192;-59
2021/12/25 13:25:13;;;;;;;4.88;3.60;;;8.30;99.90;;;;;;5093728;28;20647;-59
2021/12/25 13:27:39;;;;;;;6.55;4.05;;;7.90;99.90;;;;;;5094001;28;20686;-59
2021/12/25 13:30:16;;;;;;;6.75;4.22;;;7.80;99.90;;;;;;5094290;28;20180;-60
2021/12/25 13:32:41;;;;;;;4.32;2.92;;;7.60;99.90;;;;;;5093927;28;20234;-60
2021/12/25 13:35:08;;;;;;;4.93;2.60;;;7.50;99.90;;;;;;5093152;28;20180;-59
2021/12/25 13:37:34;;;;;;;3.63;2.67;;;7.40;99.90;;;;;;5093249;28;20191;-59
2021/12/25 13:39:59;;;;;;;3.78;2.65;;;7.30;99.90;;;;;;5093869;28;20224;-59
2021/12/25 13:42:25;;;;;;;6.32;3.88;;;7.30;99.90;;;;;;5093252;28;20267;-59
2021/12/25 13:44:52;;;;;;;3.47;2.85;;;7.20;99.90;;;;;;5093852;28;20228;-59
2021/12/25 13:47:24;;;;;;;4.07;2.85;;;7.20;99.90;;;;;;5092965;28;20188;-59
2021/12/25 13:49:54;;;;;;;2.95;2.50;;;7.10;99.90;;;;;;5092462;28;20245;-59
2021/12/25 13:52:20;;;;;;;9.32;5.45;;;7.10;99.90;;;;;;5092933;28;20176;-59
2021/12/25 13:55:07;;;;;;;5.80;4.35;;;7.10;99.90;;;;;;5093340;28;20180;-59
2021/12/25 13:57:34;;;;;;;2.38;2.17;;;7.00;99.90;;;;;;5093270;28;20227;-59
2021/12/25 14:00:06;;;;;;;2.38;2.17;;;6.80;99.90;;;;;;5093072;28;20216;-59
2021/12/25 14:02:32;;;;;;;2.22;1.90;;;6.60;99.90;;;;;;5092055;28;20712;-59
2021/12/25 14:04:58;;;;;;;5.63;3.85;;;6.40;99.90;;;;;;5093242;28;20270;-59
2021/12/25 14:07:27;;;;;;;3.25;2.95;;;6.20;99.90;;;;;;5093017;28;20180;-59
2021/12/25 14:09:53;;;;;;;3.40;2.60;;;6.10;99.90;;;;;;5093293;28;20208;-59